Tahoma, California
Current Conditions -  °F | °C
As of 3:53 PM on Saturday 20 Dec 2014 (Local Time) from KTVL Reporting Station
Overcast Overcast  
Wind Chill: 34°   Ceiling: 4600
Heat Index: 41°   Visibility: 10mi
Dew Point: 33°   Wind: 12mph
Humidity: 73%   Direction: 190°S
Pressure: 30.16"   Gusts: NA
Location:  39.05°N, 120.13°W
Report Text: KTVL 202353Z AUTO 19010KT 10SM BKN046 BKN075 OVC090 05/01 A3016 RMK AO2 SLP201 60000 T00500006 10056 20039 51015
Loading
Personal Weather Stations






























Interactive Weather Map New forecast layout! Learn more

10-Day Weather Forecast

Advertisements
Track Severe Weather on mobile